Time;durP1;ratioP1;P1;durP2;ratioP2;P2;SDS_P1;SDS_P2;PMS_P1;PMS_P2;Temp;Humidity;BMP_temperature;BMP_pressure;BME280_temperature;BME280_humidity;BME280_pressure;Samples;Min_cycle;Max_cycle;Signal;HPM_P1;HPM_P2
2021/06/16 00:00:12;;;;;;;14.95;13.27;;;;;;;19.15;70.38;100968.34;4941325;28;118264;-77
2021/06/16 00:02:38;;;;;;;13.98;12.52;;;;;;;19.08;70.40;100970.72;4924401;28;97999;-77
2021/06/16 00:05:23;;;;;;;15.30;13.65;;;;;;;18.93;70.86;100966.44;4939600;28;99310;-73
2021/06/16 00:07:49;;;;;;;15.68;14.07;;;;;;;19.04;70.39;100965.06;4941618;28;102449;-73
2021/06/16 00:10:17;;;;;;;15.05;13.35;;;;;;;18.97;70.54;100970.16;4942151;28;98490;-73
2021/06/16 00:12:43;;;;;;;15.02;13.35;;;;;;;18.95;70.63;100971.59;4938407;28;101077;-77
2021/06/16 00:15:22;;;;;;;17.02;13.52;;;;;;;18.90;70.97;100972.50;4939777;28;123082;-78
2021/06/16 00:17:49;;;;;;;15.48;13.88;;;;;;;18.76;71.30;100971.78;4941246;28;106615;-77
2021/06/16 00:20:15;;;;;;;15.95;13.90;;;;;;;18.85;71.06;100975.38;4939383;28;98188;-77
2021/06/16 00:22:41;;;;;;;15.90;14.32;;;;;;;18.50;72.30;100972.34;4923051;28;98006;-74
2021/06/16 00:25:08;;;;;;;15.73;14.07;;;;;;;18.68;72.01;100981.50;4921162;28;113952;-77
2021/06/16 00:27:34;;;;;;;15.75;14.20;;;;;;;18.74;71.66;100984.94;4903905;28;98205;-78
2021/06/16 00:30:00;;;;;;;16.02;14.35;;;;;;;18.69;71.89;100982.28;4920800;28;127469;-77
2021/06/16 00:32:26;;;;;;;15.95;14.35;;;;;;;18.74;72.00;100983.00;4887435;28;114767;-77
2021/06/16 00:34:52;;;;;;;16.48;14.77;;;;;;;18.70;71.31;100981.16;4918879;28;127854;-77
2021/06/16 00:37:18;;;;;;;16.92;14.90;;;;;;;18.56;72.18;100984.78;4902897;28;127983;-77
2021/06/16 00:39:44;;;;;;;16.00;14.40;;;;;;;18.42;72.63;100983.19;4920736;28;127129;-77
2021/06/16 00:42:10;;;;;;;16.33;14.63;;;;;;;18.44;72.88;100981.78;4937920;28;118986;-73
2021/06/16 00:44:36;;;;;;;16.48;14.77;;;;;;;18.46;72.61;100973.28;4923226;28;126582;-74
2021/06/16 00:47:03;;;;;;;15.75;14.18;;;;;;;18.21;73.81;100983.63;4939936;28;98608;-77
2021/06/16 00:49:29;;;;;;;16.77;15.07;;;;;;;18.16;74.04;100975.56;4919497;28;103654;-78
2021/06/16 00:51:55;;;;;;;16.45;14.70;;;;;;;18.11;73.84;100986.56;4921569;28;102002;-73
2021/06/16 00:54:21;;;;;;;16.67;14.82;;;;;;;18.03;74.50;100984.56;4921213;28;127931;-73
2021/06/16 00:56:47;;;;;;;16.58;14.98;;;;;;;17.95;74.13;100982.56;4903630;28;128156;-77
2021/06/16 00:59:13;;;;;;;17.90;15.75;;;;;;;17.83;74.46;100978.41;4918491;28;127796;-73
2021/06/16 01:01:47;;;;;;;17.45;15.55;;;;;;;17.55;75.59;100984.94;4919098;28;117243;-73
2021/06/16 01:04:23;;;;;;;17.92;16.00;;;;;;;17.63;75.61;100978.78;4919845;28;106312;-74
2021/06/16 01:06:53;;;;;;;18.50;15.60;;;;;;;17.84;74.96;100977.31;4919366;28;100858;-73
2021/06/16 01:09:22;;;;;;;18.45;15.15;;;;;;;17.85;74.59;100980.84;4927367;28;99147;-77
2021/06/16 01:12:10;;;;;;;17.17;15.38;;;;;;;17.82;74.86;100981.47;4939209;28;108393;-77
2021/06/16 01:14:50;;;;;;;17.55;15.68;;;;;;;17.82;74.45;100985.00;4939304;28;98631;-74
2021/06/16 01:17:28;;;;;;;17.77;15.80;;;;;;;17.96;74.10;100981.44;4908362;28;98659;-73
2021/06/16 01:20:19;;;;;;;18.65;15.18;;;;;;;17.96;74.15;100987.72;4920474;28;116467;-77
2021/06/16 01:22:58;;;;;;;17.50;15.65;;;;;;;17.84;74.22;100977.31;4922027;28;97971;-78
2021/06/16 01:25:47;;;;;;;17.23;15.43;;;;;;;17.94;74.20;100978.22;4918868;28;98930;-77
2021/06/16 01:28:14;;;;;;;17.63;15.82;;;;;;;17.88;74.49;100978.34;4903059;28;98533;-73
2021/06/16 01:30:41;;;;;;;17.48;15.60;;;;;;;18.05;74.00;100983.16;4918979;28;98114;-77
2021/06/16 01:33:08;;;;;;;18.50;15.23;;;;;;;18.03;73.88;100979.13;4920285;28;98291;-74
2021/06/16 01:35:34;;;;;;;17.92;16.05;;;;;;;17.96;74.05;100990.44;4919511;28;98638;-77
2021/06/16 01:38:00;;;;;;;17.50;15.68;;;;;;;18.05;73.73;100977.72;4904076;28;116099;-77
2021/06/16 01:40:27;;;;;;;17.42;15.10;;;;;;;18.17;73.13;100985.38;4923699;28;117247;-77
2021/06/16 01:42:55;;;;;;;17.75;15.32;;;;;;;17.99;73.82;100989.81;4899222;28;98045;-74
2021/06/16 01:45:21;;;;;;;16.50;14.63;;;;;;;17.95;73.79;100991.53;4941937;28;98097;-74
2021/06/16 01:47:47;;;;;;;17.20;15.40;;;;;;;18.00;73.56;100986.00;4925933;28;98924;-74
2021/06/16 01:50:14;;;;;;;17.13;15.32;;;;;;;17.84;74.19;100985.50;4941821;28;98123;-77
2021/06/16 01:52:41;;;;;;;15.65;14.05;;;;;;;17.97;73.65;100985.81;4909666;28;98701;-74
2021/06/16 01:55:07;;;;;;;15.77;14.00;;;;;;;17.76;74.16;100982.66;4908556;28;114246;-76
2021/06/16 01:57:34;;;;;;;16.08;14.48;;;;;;;17.76;73.82;100997.09;4925733;28;98028;-74
2021/06/16 02:00:01;;;;;;;14.85;13.27;;;;;;;17.86;73.59;100983.28;4940902;28;124762;-77
2021/06/16 02:02:27;;;;;;;15.55;13.77;;;;;;;17.78;73.69;100983.19;4928138;28;98089;-74
2021/06/16 02:04:53;;;;;;;17.63;13.98;;;;;;;17.72;73.74;100981.63;4905696;28;117755;-74
2021/06/16 02:07:22;;;;;;;15.27;13.73;;;;;;;17.81;73.70;100988.03;4923431;28;128042;-74
2021/06/16 02:09:49;;;;;;;15.10;13.60;;;;;;;17.81;73.75;100988.84;4890286;28;108592;-74
2021/06/16 02:12:15;;;;;;;14.85;13.40;;;;;;;17.83;73.37;100985.78;4906059;28;117039;-75
2021/06/16 02:14:46;;;;;;;16.50;14.10;;;;;;;17.79;73.69;100979.34;4905405;28;126749;-77
2021/06/16 02:17:13;;;;;;;15.77;14.15;;;;;;;17.52;74.55;100983.63;4906140;28;116785;-79
2021/06/16 02:19:39;;;;;;;15.23;13.63;;;;;;;17.60;74.23;100982.13;4921819;28;98598;-74
2021/06/16 02:22:06;;;;;;;16.10;14.18;;;;;;;17.72;73.74;100976.97;4905633;28;104437;-77
2021/06/16 02:24:33;;;;;;;15.80;14.15;;;;;;;17.68;73.78;100981.41;4922190;28;98486;-74
2021/06/16 02:26:59;;;;;;;15.70;14.10;;;;;;;17.52;74.34;100975.44;4924071;28;98406;-77
2021/06/16 02:29:27;;;;;;;16.23;14.57;;;;;;;17.63;73.90;100982.31;4925807;28;112533;-74
2021/06/16 02:31:53;;;;;;;17.63;15.38;;;;;;;17.49;74.14;100981.53;4942337;28;98051;-74
2021/06/16 02:34:20;;;;;;;15.68;14.25;;;;;;;17.60;74.33;100979.41;4940744;28;117545;-74
2021/06/16 02:36:49;;;;;;;16.52;14.75;;;;;;;17.54;74.19;100975.16;4943213;28;98069;-74
2021/06/16 02:39:19;;;;;;;15.98;14.38;;;;;;;17.33;74.80;100980.16;4908759;28;98157;-74
2021/06/16 02:41:46;;;;;;;17.35;14.98;;;;;;;17.47;74.29;100975.56;4925701;28;98677;-78
2021/06/16 02:44:12;;;;;;;16.98;15.18;;;;;;;17.38;74.75;100982.81;4940817;28;98822;-74
2021/06/16 02:46:39;;;;;;;16.33;14.63;;;;;;;17.44;74.54;100973.41;4942087;28;98534;-74
2021/06/16 02:49:08;;;;;;;16.25;14.55;;;;;;;17.38;74.33;100977.38;4906269;28;121701;-76
2021/06/16 02:51:35;;;;;;;16.42;14.55;;;;;;;17.43;74.48;100977.25;4907961;28;117002;-77
2021/06/16 02:54:02;;;;;;;16.67;14.93;;;;;;;17.36;74.43;100974.91;4924328;28;118585;-77
2021/06/16 02:56:28;;;;;;;15.63;14.10;;;;;;;17.16;74.86;100978.81;4941744;28;98447;-76
2021/06/16 02:58:54;;;;;;;15.80;14.02;;;;;;;17.36;74.30;100974.91;4911497;28;125675;-74
2021/06/16 03:01:20;;;;;;;16.75;14.10;;;;;;;17.47;73.76;100978.28;4889889;28;98892;-74
2021/06/16 03:03:49;;;;;;;16.42;14.25;;;;;;;17.20;74.25;100979.03;4905325;28;98473;-74
2021/06/16 03:06:21;;;;;;;15.93;14.23;;;;;;;17.09;74.80;100980.31;4889004;28;100582;-73
2021/06/16 03:08:48;;;;;;;16.40;13.70;;;;;;;16.93;75.37;100986.00;4905796;28;97999;-73
2021/06/16 03:11:16;;;;;;;15.75;14.15;;;;;;;17.10;74.40;100985.47;4921502;28;100607;-74
2021/06/16 03:13:44;;;;;;;16.42;14.18;;;;;;;17.16;74.15;100983.47;4921291;28;99589;-76
2021/06/16 03:16:10;;;;;;;16.08;13.32;;;;;;;17.16;74.48;100994.34;4904762;28;98830;-74
2021/06/16 03:18:36;;;;;;;17.45;13.35;;;;;;;17.24;73.56;100995.59;4921428;28;98048;-76
2021/06/16 03:21:02;;;;;;;14.63;13.23;;;;;;;17.25;73.64;100998.03;4889853;28;97983;-76
2021/06/16 03:23:30;;;;;;;15.95;13.18;;;;;;;17.37;73.09;100990.19;4920516;28;99677;-74
2021/06/16 03:25:57;;;;;;;15.10;13.25;;;;;;;17.17;73.31;100993.25;4905984;28;99114;-74
2021/06/16 03:28:27;;;;;;;14.85;12.70;;;;;;;17.27;73.28;100990.34;4923820;28;98190;-77
2021/06/16 03:30:57;;;;;;;17.02;13.20;;;;;;;17.40;73.13;100989.56;4925274;28;98276;-76
2021/06/16 03:33:23;;;;;;;16.17;13.63;;;;;;;17.39;72.82;100989.88;4924175;28;98551;-76
2021/06/16 03:35:49;;;;;;;15.43;13.85;;;;;;;17.53;72.66;100990.72;4924043;28;98976;-76
2021/06/16 03:38:16;;;;;;;15.85;13.95;;;;;;;17.49;72.90;100991.59;4923073;28;128923;-76
2021/06/16 03:40:42;;;;;;;16.52;14.02;;;;;;;17.52;72.78;100993.72;4940190;28;97842;-74
2021/06/16 03:43:08;;;;;;;15.98;13.93;;;;;;;17.46;72.95;100982.13;4924326;28;108161;-74
2021/06/16 03:45:35;;;;;;;17.73;15.23;;;;;;;17.55;72.64;100988.47;4908539;28;97782;-74
2021/06/16 03:48:02;;;;;;;16.20;14.15;;;;;;;17.51;72.51;100983.94;4907947;28;98114;-74
2021/06/16 03:50:28;;;;;;;14.98;13.50;;;;;;;17.63;72.42;100985.06;4924154;28;98009;-74
2021/06/16 03:52:55;;;;;;;15.80;14.10;;;;;;;17.78;71.88;100991.34;4898623;28;119347;-76
2021/06/16 03:55:21;;;;;;;17.55;14.13;;;;;;;17.77;71.31;100982.38;4920231;28;98377;-78
2021/06/16 03:57:47;;;;;;;16.10;13.90;;;;;;;17.68;71.10;100984.13;4903770;28;100976;-77
2021/06/16 04:00:14;;;;;;;15.15;13.57;;;;;;;17.74;70.59;100984.88;4887234;28;118043;-74
2021/06/16 04:02:40;;;;;;;14.35;12.95;;;;;;;17.66;70.35;100980.91;4887362;28;103931;-78
2021/06/16 04:05:08;;;;;;;14.27;12.77;;;;;;;17.76;70.02;100988.09;4888819;28;98706;-77
2021/06/16 04:07:35;;;;;;;15.02;12.07;;;;;;;17.60;70.10;100988.38;4916376;28;112081;-77
2021/06/16 04:10:02;;;;;;;15.07;12.20;;;;;;;17.60;70.23;100984.84;4923745;28;106022;-75
2021/06/16 04:12:28;;;;;;;14.02;12.15;;;;;;;17.70;68.62;100976.47;4923565;28;98860;-78
2021/06/16 04:14:55;;;;;;;12.65;11.00;;;;;;;17.33;70.10;100985.59;4923531;28;98881;-75
2021/06/16 04:17:22;;;;;;;13.48;10.77;;;;;;;17.45;69.33;100988.69;4922625;28;125576;-78
2021/06/16 04:19:49;;;;;;;11.73;10.52;;;;;;;17.54;68.76;100988.78;4923529;28;98215;-74
2021/06/16 04:22:15;;;;;;;12.00;10.77;;;;;;;17.86;68.36;100990.66;4906818;28;99514;-78
2021/06/16 04:24:41;;;;;;;11.57;10.40;;;;;;;17.45;69.12;100980.50;4921670;28;110551;-74
2021/06/16 04:27:07;;;;;;;12.15;10.95;;;;;;;17.85;68.16;100989.03;4902445;28;127462;-78
2021/06/16 04:29:34;;;;;;;11.10;10.00;;;;;;;18.08;67.13;100988.00;4920634;28;98203;-78
2021/06/16 04:32:00;;;;;;;11.98;9.27;;;;;;;18.19;66.18;100985.06;4901360;28;98031;-78
2021/06/16 04:34:26;;;;;;;11.07;9.07;;;;;;;18.08;66.01;100988.00;4919720;28;98381;-74
2021/06/16 04:36:52;;;;;;;10.98;8.43;;;;;;;18.05;65.77;100985.09;4936376;28;98314;-75
2021/06/16 04:39:18;;;;;;;9.38;8.38;;;;;;;18.12;65.17;100988.22;4903184;28;117930;-77
2021/06/16 04:41:44;;;;;;;9.25;8.25;;;;;;;17.67;65.52;100988.78;4917676;28;128783;-74
2021/06/16 04:44:11;;;;;;;9.45;7.85;;;;;;;17.86;65.56;100985.19;4935932;28;111714;-75
2021/06/16 04:46:37;;;;;;;9.82;8.30;;;;;;;17.89;65.39;100984.59;4919156;28;119875;-74
2021/06/16 04:49:03;;;;;;;9.35;7.10;;;;;;;18.12;64.87;100977.31;4937162;28;118914;-75
2021/06/16 04:51:29;;;;;;;8.57;6.90;;;;;;;18.15;64.72;100984.84;4936320;28;106653;-77
2021/06/16 04:53:55;;;;;;;9.20;7.25;;;;;;;18.26;63.58;100990.91;4937558;28;125543;-76
2021/06/16 04:56:21;;;;;;;9.45;7.10;;;;;;;18.02;64.11;100991.16;4934233;28;127257;-77
2021/06/16 04:58:47;;;;;;;8.95;6.38;;;;;;;18.11;63.78;100986.56;4919066;28;117576;-77
2021/06/16 05:01:13;;;;;;;9.15;6.80;;;;;;;18.15;62.81;100988.38;4933638;28;124390;-77
2021/06/16 05:03:39;;;;;;;6.88;6.18;;;;;;;18.35;62.78;100975.41;4920147;28;127567;-77
2021/06/16 05:06:05;;;;;;;8.00;6.10;;;;;;;18.66;61.86;100975.53;4923142;28;108195;-77
2021/06/16 05:08:31;;;;;;;7.05;6.35;;;;;;;18.57;61.51;100978.19;4922920;28;98433;-77
2021/06/16 05:10:57;;;;;;;7.57;6.47;;;;;;;18.67;61.05;100977.16;4905924;28;127759;-75
2021/06/16 05:13:24;;;;;;;6.55;5.65;;;;;;;19.04;60.63;100975.19;4937825;28;127291;-77
2021/06/16 05:15:51;;;;;;;9.60;5.70;;;;;;;18.87;60.33;100978.63;4940655;28;99362;-78
2021/06/16 05:18:17;;;;;;;8.50;6.28;;;;;;;19.05;59.81;100980.31;4906800;28;97868;-75
2021/06/16 05:20:44;;;;;;;8.00;6.03;;;;;;;19.04;59.76;100983.38;4923024;28;98596;-79
2021/06/16 05:23:10;;;;;;;9.15;6.05;;;;;;;19.44;59.27;100977.97;4922395;28;98653;-77
2021/06/16 05:25:36;;;;;;;7.78;5.88;;;;;;;19.32;58.09;100984.03;4906074;28;126353;-76
2021/06/16 05:28:02;;;;;;;8.88;5.35;;;;;;;19.31;57.75;100979.69;4914129;28;104419;-77
2021/06/16 05:30:28;;;;;;;7.22;5.22;;;;;;;19.60;57.47;100979.16;4903352;28;98525;-77
2021/06/16 05:32:54;;;;;;;7.35;4.90;;;;;;;19.93;56.84;100976.91;4919090;28;114267;-77
2021/06/16 05:35:21;;;;;;;6.22;4.75;;;;;;;19.92;55.63;100985.41;4895584;28;127379;-77
2021/06/16 05:37:47;;;;;;;6.50;4.28;;;;;;;20.02;54.74;100985.94;4938712;28;97971;-78
2021/06/16 05:40:14;;;;;;;5.50;4.65;;;;;;;19.74;55.28;100990.84;4921952;28;127733;-76
2021/06/16 05:42:41;;;;;;;7.20;4.60;;;;;;;19.99;55.46;100983.03;4938688;28;98860;-77
2021/06/16 05:45:08;;;;;;;6.47;4.07;;;;;;;20.17;54.19;100978.41;4921711;28;116970;-77
2021/06/16 05:47:34;;;;;;;7.05;4.05;;;;;;;20.65;53.04;100977.50;4921600;28;97904;-76
2021/06/16 05:50:00;;;;;;;6.07;3.60;;;;;;;20.96;51.98;100971.84;4939667;28;127947;-76
2021/06/16 05:52:26;;;;;;;6.45;3.60;;;;;;;21.46;50.96;100983.03;4921187;28;126184;-77
2021/06/16 05:54:52;;;;;;;6.07;3.58;;;;;;;21.94;49.57;100976.34;4921298;28;125763;-77
2021/06/16 05:57:18;;;;;;;6.93;3.30;;;;;;;22.08;48.85;100973.34;4940695;28;108236;-78
2021/06/16 05:59:44;;;;;;;6.20;3.33;;;;;;;23.00;47.04;100975.25;4939526;28;125120;-77
2021/06/16 06:02:10;;;;;;;8.80;3.60;;;;;;;23.49;45.31;100984.38;4921724;28;128206;-77
2021/06/16 06:04:38;;;;;;;6.82;3.15;;;;;;;24.43;42.96;100974.38;4921537;28;127254;-77
2021/06/16 06:07:05;;;;;;;6.70;2.80;;;;;;;25.33;41.19;100975.72;4940728;28;98023;-77
2021/06/16 06:09:31;;;;;;;3.53;2.60;;;;;;;25.35;40.10;100978.94;4922595;28;98605;-77
2021/06/16 06:11:58;;;;;;;4.82;2.80;;;;;;;25.47;39.68;100989.09;4922053;28;98714;-77
2021/06/16 06:14:24;;;;;;;5.57;2.72;;;;;;;25.35;40.87;100984.44;4920151;28;98238;-77
2021/06/16 06:16:50;;;;;;;5.43;2.60;;;;;;;25.71;39.86;100982.56;4937790;28;98085;-76
2021/06/16 06:19:16;;;;;;;5.32;2.60;;;;;;;25.66;39.38;100975.38;4921775;28;115778;-77
2021/06/16 06:21:42;;;;;;;4.68;2.30;;;;;;;26.52;37.93;100985.59;4922050;28;99371;-76
2021/06/16 06:24:08;;;;;;;3.90;2.63;;;;;;;26.63;37.94;100970.06;4921707;28;127582;-77
2021/06/16 06:26:34;;;;;;;4.70;2.85;;;;;;;27.38;36.99;100977.00;4908445;28;118802;-76
2021/06/16 06:29:01;;;;;;;5.43;2.55;;;;;;;27.60;35.90;100967.09;4939785;28;98382;-76
2021/06/16 06:31:27;;;;;;;5.18;2.28;;;;;;;28.88;34.88;100975.56;4941687;28;99358;-76
2021/06/16 06:33:55;;;;;;;4.35;2.40;;;;;;;28.34;35.26;100974.91;4941468;28;99266;-76
2021/06/16 06:36:21;;;;;;;5.55;2.92;;;;;;;28.70;34.73;100969.03;4909741;28;98178;-76
2021/06/16 06:38:47;;;;;;;4.57;2.70;;;;;;;28.60;34.02;100965.75;4941183;28;109331;-76
2021/06/16 06:41:14;;;;;;;4.10;2.50;;;;;;;27.74;36.33;100965.72;4940027;28;127807;-77
2021/06/16 06:43:40;;;;;;;4.13;2.20;;;;;;;26.88;38.10;100969.72;4921271;28;98124;-77
2021/06/16 06:46:07;;;;;;;3.58;2.42;;;;;;;26.88;38.33;100969.72;4921806;28;102662;-76
2021/06/16 06:48:33;;;;;;;3.22;2.40;;;;;;;25.98;40.14;100974.53;4905333;28;98713;-76
2021/06/16 06:50:59;;;;;;;4.13;2.22;;;;;;;25.78;41.03;100970.91;4904358;28;128182;-77
2021/06/16 06:53:27;;;;;;;4.88;2.55;;;;;;;26.47;39.03;100965.78;4923207;28;109456;-76
2021/06/16 06:55:53;;;;;;;4.15;2.60;;;;;;;26.49;39.14;100963.44;4923796;28;98048;-74
2021/06/16 06:58:19;;;;;;;6.28;2.40;;;;;;;26.64;39.13;100970.84;4923392;28;98594;-74
2021/06/16 07:00:45;;;;;;;4.55;2.45;;;;;;;26.75;39.36;100971.88;4930976;28;98847;-74
2021/06/16 07:03:12;;;;;;;4.28;2.67;;;;;;;27.16;37.77;100963.97;4926287;28;98270;-76
2021/06/16 07:05:38;;;;;;;6.20;2.55;;;;;;;27.31;37.89;100957.53;4924497;28;97763;-74
2021/06/16 07:08:04;;;;;;;4.07;2.80;;;;;;;27.69;36.65;100968.78;4932857;28;125931;-74
2021/06/16 07:10:30;;;;;;;5.25;2.40;;;;;;;27.48;36.89;100961.75;4930270;28;109723;-77
2021/06/16 07:12:56;;;;;;;5.88;2.70;;;;;;;27.07;37.97;100955.88;4888035;28;102214;-75
2021/06/16 07:15:22;;;;;;;5.50;2.42;;;;;;;27.68;37.44;100947.84;4920909;28;97976;-77
2021/06/16 07:17:48;;;;;;;4.13;2.25;;;;;;;27.45;37.74;100956.94;4922738;28;98545;-76
2021/06/16 07:20:18;;;;;;;5.13;2.60;;;;;;;27.71;38.13;100949.88;4921283;28;98675;-76
2021/06/16 07:22:45;;;;;;;4.63;2.90;;;;;;;28.05;36.69;100948.78;4937442;28;98413;-77
2021/06/16 07:25:11;;;;;;;4.82;2.67;;;;;;;28.06;36.74;100952.34;4908996;28;98121;-74
2021/06/16 07:27:37;;;;;;;4.35;2.80;;;;;;;28.43;36.41;100949.72;4938121;28;126496;-76
2021/06/16 07:30:05;;;;;;;6.60;2.70;;;;;;;28.52;35.92;100952.19;4924185;28;100338;-76
2021/06/16 07:32:32;;;;;;;3.85;2.58;;;;;;;28.28;36.36;100947.91;4940724;28;108271;-76
2021/06/16 07:34:59;;;;;;;4.85;2.60;;;;;;;28.35;36.75;100954.34;4923340;28;106546;-75
2021/06/16 07:37:25;;;;;;;5.05;2.47;;;;;;;27.19;38.58;100957.69;4941786;28;98760;-76
2021/06/16 07:39:52;;;;;;;6.05;3.17;;;;;;;28.20;37.18;100946.22;4939531;28;119978;-74
2021/06/16 07:42:18;;;;;;;4.15;3.03;;;;;;;28.96;35.74;100945.94;4941545;28;98623;-74
2021/06/16 07:44:44;;;;;;;3.78;2.60;;;;;;;28.51;36.61;100947.84;4940122;28;118055;-73
2021/06/16 07:47:10;;;;;;;4.78;3.00;;;;;;;28.49;36.78;100952.94;4940407;28;128317;-73
2021/06/16 07:49:36;;;;;;;3.42;2.90;;;;;;;29.21;35.52;100949.78;4939581;28;100063;-73
2021/06/16 07:52:03;;;;;;;5.43;3.13;;;;;;;29.80;34.54;100952.66;4939661;28;105258;-76
2021/06/16 07:54:29;;;;;;;3.80;2.78;;;;;;;30.56;32.52;100947.09;4922285;28;98603;-73
2021/06/16 07:56:55;;;;;;;4.93;2.78;;;;;;;31.07;31.76;100950.81;4933287;28;97932;-75
2021/06/16 07:59:21;;;;;;;5.47;2.92;;;;;;;30.69;32.39;100953.06;4940226;28;98772;-74
2021/06/16 08:01:48;;;;;;;4.20;3.20;;;;;;;30.87;32.13;100957.94;4929281;28;116809;-75
2021/06/16 08:04:14;;;;;;;5.03;3.33;;;;;;;29.96;33.76;100949.56;4941711;28;98018;-72
2021/06/16 08:06:40;;;;;;;8.30;3.08;;;;;;;30.35;33.54;100955.34;4915505;28;98729;-76
2021/06/16 08:09:07;;;;;;;4.60;2.97;;;;;;;30.72;32.91;100962.63;4902617;28;126608;-73
2021/06/16 08:11:33;;;;;;;7.25;3.15;;;;;;;31.09;31.53;100950.41;4921850;28;112641;-75
2021/06/16 08:13:59;;;;;;;6.18;3.25;;;;;;;32.56;29.94;100956.59;4933193;28;97848;-73
2021/06/16 08:16:25;;;;;;;4.82;2.90;;;;;;;32.59;29.24;100948.19;4906499;28;100416;-75
2021/06/16 08:18:51;;;;;;;4.72;2.88;;;;;;;32.44;29.67;100955.84;4922453;28;128568;-76
2021/06/16 08:21:18;;;;;;;3.80;2.80;;;;;;;33.31;28.20;100948.53;4919477;28;98067;-76
2021/06/16 08:23:44;;;;;;;4.88;3.10;;;;;;;33.72;27.67;100940.19;4933731;28;99180;-72
2021/06/16 08:26:11;;;;;;;5.28;2.80;;;;;;;33.83;27.92;100934.47;4923019;28;99720;-71
2021/06/16 08:28:37;;;;;;;8.15;3.28;;;;;;;31.78;31.54;100939.66;4922311;28;116157;-75
2021/06/16 08:31:03;;;;;;;6.22;3.63;;;;;;;34.05;30.17;100937.88;4876134;28;99865;-76
2021/06/16 08:33:29;;;;;;;7.72;3.50;;;;;;;33.99;29.67;100930.34;4921248;28;107548;-72
2021/06/16 08:35:55;;;;;;;5.75;3.47;;;;;;;32.74;31.53;100941.34;4922047;28;99272;-70
2021/06/16 08:38:21;;;;;;;4.68;3.20;;;;;;;33.08;32.61;100935.16;4933247;28;127721;-71
2021/06/16 08:40:48;;;;;;;3.78;3.05;;;;;;;34.60;28.42;100930.41;4938833;28;128151;-71
2021/06/16 08:43:14;;;;;;;5.82;2.85;;;;;;;34.79;26.93;100920.53;4941810;28;98048;-71
2021/06/16 08:45:41;;;;;;;4.68;3.40;;;;;;;34.12;30.87;100917.44;4939170;28;98652;-71
2021/06/16 08:48:08;;;;;;;3.70;3.17;;;;;;;33.58;29.10;100920.00;4939117;28;98333;-71
2021/06/16 08:50:35;;;;;;;4.68;3.38;;;;;;;35.19;28.41;100921.53;4941278;28;98224;-70
2021/06/16 08:53:01;;;;;;;5.90;3.72;;;;;;;34.31;26.90;100914.00;4935117;28;97856;-71
2021/06/16 08:55:27;;;;;;;6.10;3.30;;;;;;;34.42;28.63;100911.81;4919403;28;100122;-70
2021/06/16 08:57:53;;;;;;;6.68;3.10;;;;;;;34.58;29.25;100922.41;4919808;28;98528;-69
2021/06/16 09:00:20;;;;;;;4.90;2.90;;;;;;;34.60;27.57;100922.81;4925456;28;117246;-69
2021/06/16 09:02:46;;;;;;;6.93;3.40;;;;;;;34.56;27.58;100922.06;4922682;28;98190;-70
2021/06/16 09:05:13;;;;;;;3.58;3.00;;;;;;;35.63;25.37;100920.34;4921057;28;99243;-69
2021/06/16 09:07:41;;;;;;;5.35;2.90;;;;;;;34.96;27.06;100927.06;4940825;28;101007;-70
2021/06/16 09:10:15;;;;;;;4.45;3.45;;;;;;;35.74;25.32;100922.19;4940520;28;98654;-69
2021/06/16 09:12:58;;;;;;;7.07;3.10;;;;;;;34.16;27.58;100904.97;4941447;28;97777;-72
2021/06/16 09:15:29;;;;;;;4.18;3.00;;;;;;;35.13;27.00;100914.81;4938871;28;98494;-69
2021/06/16 09:18:10;;;;;;;8.00;3.40;;;;;;;33.80;28.44;100912.97;4938699;28;100215;-71
2021/06/16 09:20:44;;;;;;;4.25;3.08;;;;;;;33.61;29.08;100897.59;4922653;28;98019;-68
2021/06/16 09:23:30;;;;;;;5.18;3.35;;;;;;;33.31;28.48;100901.06;4922879;28;98106;-72
2021/06/16 09:26:17;;;;;;;6.68;3.30;;;;;;;34.18;26.77;100894.16;4917990;28;125811;-72
2021/06/16 09:28:46;;;;;;;5.15;3.20;;;;;;;33.88;27.94;100899.72;4923390;28;98409;-69
2021/06/16 09:31:14;;;;;;;4.47;3.63;;;;;;;34.45;26.63;100905.38;4903374;28;98042;-69
2021/06/16 09:33:40;;;;;;;5.00;3.50;;;;;;;35.10;26.77;100902.47;4925948;28;110005;-69
2021/06/16 09:36:14;;;;;;;3.80;3.35;;;;;;;35.86;25.14;100905.50;4938463;28;99118;-68
2021/06/16 09:38:44;;;;;;;6.25;3.10;;;;;;;36.21;24.57;100910.84;4939770;28;119461;-69
2021/06/16 09:41:11;;;;;;;5.43;3.63;;;;;;;36.84;24.59;100913.44;4923039;28;98456;-74
2021/06/16 09:43:38;;;;;;;5.10;3.60;;;;;;;35.79;25.66;100900.03;4940468;28;102513;-69
2021/06/16 09:46:07;;;;;;;7.13;3.95;;;;;;;36.61;23.90;100894.75;4940133;28;116324;-69
2021/06/16 09:48:35;;;;;;;6.78;3.50;;;;;;;37.28;23.63;100894.31;4930250;28;98459;-69
2021/06/16 09:51:28;;;;;;;5.07;3.38;;;;;;;37.27;23.58;100896.34;4935373;28;100470;-73
2021/06/16 09:53:56;;;;;;;4.90;3.47;;;;;;;36.04;25.32;100884.75;4939332;28;98415;-69
2021/06/16 09:56:23;;;;;;;5.25;3.60;;;;;;;36.50;24.88;100885.78;4940983;28;97941;-73
2021/06/16 09:58:49;;;;;;;5.47;3.40;;;;;;;37.19;23.92;100889.34;4941306;28;98856;-73
2021/06/16 10:01:15;;;;;;;6.22;3.63;;;;;;;36.80;24.54;100867.81;4939988;28;117829;-73
2021/06/16 10:03:41;;;;;;;5.10;3.58;;;;;;;37.88;22.91;100869.41;4942867;28;108473;-73
2021/06/16 10:06:15;;;;;;;5.95;3.20;;;;;;;37.29;23.10;100862.19;4927449;28;107979;-70
2021/06/16 10:08:46;;;;;;;5.28;3.58;;;;;;;38.06;22.34;100866.09;4907341;28;98754;-69
2021/06/16 10:11:20;;;;;;;7.13;3.40;;;;;;;36.75;24.17;100857.13;4906866;28;99959;-73
2021/06/16 10:13:49;;;;;;;5.35;3.30;;;;;;;36.09;24.86;100859.00;4930897;28;103390;-75
2021/06/16 10:16:16;;;;;;;7.28;3.38;;;;;;;37.49;23.14;100851.63;4943313;28;105262;-73
2021/06/16 10:18:47;;;;;;;4.63;3.17;;;;;;;38.19;22.11;100857.66;4928679;28;101357;-74
2021/06/16 10:21:17;;;;;;;5.68;3.38;;;;;;;38.20;21.90;100851.59;4922379;28;98025;-73
2021/06/16 10:23:43;;;;;;;4.47;3.35;;;;;;;37.29;22.48;100848.91;4916988;28;97814;-73
2021/06/16 10:26:22;;;;;;;5.43;3.38;;;;;;;37.75;22.19;100848.91;4904994;28;127517;-73
2021/06/16 10:28:59;;;;;;;4.80;3.20;;;;;;;35.70;25.35;100843.75;4924836;28;99513;-74
2021/06/16 10:31:36;;;;;;;3.55;3.10;;;;;;;37.22;23.37;100840.69;4923204;28;110485;-69
2021/06/16 10:34:02;;;;;;;6.93;2.90;;;;;;;34.43;26.56;100849.09;4922212;28;97942;-72
2021/06/16 10:36:28;;;;;;;6.82;3.60;;;;;;;34.92;26.50;100837.53;4922441;28;99892;-72
2021/06/16 10:38:58;;;;;;;6.25;3.35;;;;;;;34.76;27.12;100843.81;4903595;28;127786;-72
2021/06/16 10:41:45;;;;;;;4.97;3.90;;;;;;;35.10;25.58;100838.06;4923861;28;98025;-72
2021/06/16 10:44:24;;;;;;;4.93;3.40;;;;;;;36.20;24.84;100836.31;4923846;28;98065;-68
2021/06/16 10:46:51;;;;;;;6.70;3.20;;;;;;;36.83;23.84;100827.66;4924501;28;99506;-72
2021/06/16 10:49:42;;;;;;;7.00;3.60;;;;;;;35.69;24.92;100833.00;4923561;28;98660;-67
2021/06/16 10:52:15;;;;;;;5.22;3.30;;;;;;;35.77;25.53;100829.59;4924152;28;98708;-68
2021/06/16 10:54:56;;;;;;;5.85;3.28;;;;;;;33.75;27.69;100823.19;4923435;28;110863;-67
2021/06/16 10:57:23;;;;;;;6.85;3.42;;;;;;;33.63;27.49;100814.16;4904840;28;110383;-67
2021/06/16 10:59:50;;;;;;;5.40;3.35;;;;;;;33.28;28.38;100806.94;4923363;28;98163;-67
2021/06/16 11:02:25;;;;;;;4.53;3.60;;;;;;;33.15;29.10;100817.03;4923750;28;98229;-71
2021/06/16 11:04:51;;;;;;;7.43;3.60;;;;;;;31.86;30.72;100812.28;4923100;28;98114;-72
2021/06/16 11:07:32;;;;;;;5.40;3.60;;;;;;;32.19;30.44;100801.81;4920222;28;109855;-68
2021/06/16 11:09:59;;;;;;;7.88;4.10;;;;;;;32.97;28.86;100806.03;4921558;28;98487;-71
2021/06/16 11:12:42;;;;;;;6.72;4.00;;;;;;;34.82;27.78;100813.31;4923040;28;106277;-72
2021/06/16 11:15:24;;;;;;;5.70;4.00;;;;;;;34.97;26.38;100814.66;4930340;28;102894;-71
2021/06/16 11:18:00;;;;;;;6.38;3.97;;;;;;;34.74;26.25;100804.25;4942189;28;98640;-71